Time;durP1;ratioP1;P1;durP2;ratioP2;P2;SDS_P1;SDS_P2;PMS_P1;PMS_P2;Temp;Humidity;BMP_temperature;BMP_pressure;BME280_temperature;BME280_humidity;BME280_pressure;Samples;Min_cycle;Max_cycle;Signal;HPM_P1;HPM_P2
2023/05/25 00:01:34;;;;;;;15.70;6.13;;;20.10;65.40;;;;;;7386263;19;20092;-72
2023/05/25 00:04:03;;;;;;;20.05;6.07;;;20.00;65.70;;;;;;7387556;19;20014;-72
2023/05/25 00:06:32;;;;;;;20.38;6.38;;;20.10;65.50;;;;;;7386308;19;20010;-72
2023/05/25 00:09:01;;;;;;;24.33;6.18;;;20.10;65.70;;;;;;7386453;19;20362;-72
2023/05/25 00:11:30;;;;;;;21.25;6.47;;;20.00;65.50;;;;;;7407600;19;20015;-72
2023/05/25 00:13:58;;;;;;;24.50;7.07;;;20.00;65.50;;;;;;7386570;19;20373;-73
2023/05/25 00:16:27;;;;;;;21.15;6.57;;;20.00;65.70;;;;;;7384886;19;20007;-72
2023/05/25 00:19:02;;;;;;;17.83;6.03;;;20.00;65.70;;;;;;7385748;19;20024;-73
2023/05/25 00:21:33;;;;;;;19.08;6.38;;;19.90;65.80;;;;;;7383126;19;20274;-72
2023/05/25 00:24:01;;;;;;;17.95;6.47;;;19.90;66.00;;;;;;7387093;19;20401;-72
2023/05/25 00:26:30;;;;;;;19.45;6.43;;;19.90;66.10;;;;;;7402202;19;20100;-72
2023/05/25 00:28:59;;;;;;;19.25;6.22;;;19.90;65.90;;;;;;7379614;19;20020;-72
2023/05/25 00:31:28;;;;;;;16.88;6.18;;;19.90;65.90;;;;;;7381052;19;20518;-72
2023/05/25 00:34:00;;;;;;;18.63;6.38;;;19.90;65.90;;;;;;7382312;19;20003;-72
2023/05/25 00:36:29;;;;;;;20.52;6.05;;;19.80;65.90;;;;;;7381065;19;20014;-72
2023/05/25 00:38:57;;;;;;;17.45;5.82;;;19.80;66.20;;;;;;7393004;19;20006;-72
2023/05/25 00:41:28;;;;;;;18.73;6.55;;;19.80;66.20;;;;;;7402301;19;20024;-72
2023/05/25 00:43:59;;;;;;;19.03;5.97;;;19.70;66.30;;;;;;7380515;19;20406;-72
2023/05/25 00:46:28;;;;;;;;;;;19.70;66.00;;;;;;7381535;19;20010;-72
2023/05/25 00:48:59;;;;;;;19.25;6.13;;;19.80;66.30;;;;;;7379553;19;20570;-72
2023/05/25 00:51:28;;;;;;;;;;;19.60;66.10;;;;;;7381828;19;20006;-72
2023/05/25 00:53:57;;;;;;;18.83;5.40;;;19.70;66.30;;;;;;7397566;19;19923;-73
2023/05/25 00:56:30;;;;;;;23.35;5.90;;;19.60;66.40;;;;;;7400199;19;20732;-72
2023/05/25 00:59:02;;;;;;;18.55;5.95;;;19.50;66.70;;;;;;7380367;19;20019;-73
2023/05/25 01:01:38;;;;;;;18.17;5.60;;;19.50;66.90;;;;;;7379506;19;20010;-73
2023/05/25 01:04:14;;;;;;;17.15;5.70;;;19.50;66.90;;;;;;7379976;19;20013;-73
2023/05/25 01:06:48;;;;;;;19.27;6.07;;;19.40;67.10;;;;;;7379080;19;20070;-72
2023/05/25 01:09:20;;;;;;;16.02;6.90;;;19.30;67.40;;;;;;7378870;19;20031;-72
2023/05/25 01:11:52;;;;;;;18.85;5.88;;;19.20;67.70;;;;;;7401621;19;20007;-72
2023/05/25 01:14:23;;;;;;;22.73;6.35;;;19.30;67.80;;;;;;7378788;19;20291;-72
2023/05/25 01:16:54;;;;;;;22.60;6.72;;;19.10;68.20;;;;;;7378977;19;20038;-72
2023/05/25 01:19:25;;;;;;;23.70;7.18;;;19.20;68.40;;;;;;7379699;19;20023;-72
2023/05/25 01:22:02;;;;;;;16.30;6.13;;;19.10;68.60;;;;;;7379043;19;20067;-72
2023/05/25 01:24:39;;;;;;;18.83;7.10;;;19.10;69.60;;;;;;7379593;19;20088;-72
2023/05/25 01:27:15;;;;;;;19.58;6.05;;;19.10;69.00;;;;;;7379374;19;20035;-72
2023/05/25 01:29:46;;;;;;;29.05;8.15;;;19.10;69.10;;;;;;7399510;19;20006;-71
2023/05/25 01:32:16;;;;;;;21.25;7.43;;;19.10;69.30;;;;;;7375352;19;20071;-72
2023/05/25 01:34:46;;;;;;;22.08;7.63;;;18.90;69.60;;;;;;7379620;19;20741;-72
2023/05/25 01:37:22;;;;;;;35.07;6.80;;;18.90;69.90;;;;;;7384725;19;20051;-71
2023/05/25 01:39:50;;;;;;;21.63;6.18;;;18.90;71.00;;;;;;7393312;19;20223;-71
2023/05/25 01:42:19;;;;;;;25.83;7.10;;;18.90;70.30;;;;;;7393410;19;20014;-72
2023/05/25 01:44:48;;;;;;;18.95;6.50;;;18.90;70.40;;;;;;7405614;19;20003;-72
2023/05/25 01:47:25;;;;;;;21.90;7.03;;;18.80;70.50;;;;;;7378203;19;20266;-72
2023/05/25 01:50:01;;;;;;;19.27;7.05;;;18.80;70.70;;;;;;7378760;19;20044;-73
2023/05/25 01:52:37;;;;;;;18.55;6.95;;;18.80;70.70;;;;;;7378760;19;20019;-73
2023/05/25 01:55:10;;;;;;;22.80;6.72;;;18.80;70.80;;;;;;7380175;19;20016;-73
2023/05/25 01:57:44;;;;;;;23.45;6.47;;;18.80;71.90;;;;;;7378828;19;20012;-72
2023/05/25 02:00:14;;;;;;;23.02;6.82;;;18.80;71.20;;;;;;7377121;19;20007;-73
2023/05/25 02:02:47;;;;;;;20.13;7.20;;;18.80;71.30;;;;;;7399780;19;20019;-71
2023/05/25 02:05:15;;;;;;;28.67;7.30;;;18.80;71.40;;;;;;7377549;19;20003;-71
2023/05/25 02:07:47;;;;;;;24.80;7.45;;;18.60;71.70;;;;;;7377577;19;20013;-71
2023/05/25 02:10:15;;;;;;;22.33;6.72;;;18.60;72.00;;;;;;7378208;19;20467;-71
2023/05/25 02:12:44;;;;;;;20.52;6.97;;;18.60;72.20;;;;;;7377228;19;20011;-71
2023/05/25 02:15:13;;;;;;;23.65;7.03;;;18.60;72.40;;;;;;7378189;19;20006;-71
2023/05/25 02:17:42;;;;;;;22.38;7.78;;;18.60;72.50;;;;;;7400126;19;20074;-71
2023/05/25 02:20:12;;;;;;;24.58;7.53;;;18.60;72.60;;;;;;7377123;19;20680;-71
2023/05/25 02:22:41;;;;;;;18.15;6.85;;;18.50;72.60;;;;;;7377599;19;20081;-71
2023/05/25 02:25:12;;;;;;;21.67;7.68;;;18.40;72.60;;;;;;7376877;19;20010;-71
2023/05/25 02:27:41;;;;;;;;;;;18.40;72.60;;;;;;7378319;19;20042;-71
2023/05/25 02:30:10;;;;;;;20.27;6.78;;;18.50;72.80;;;;;;7377350;19;20221;-71
2023/05/25 02:32:39;;;;;;;23.73;7.30;;;18.40;72.80;;;;;;7396733;19;20078;-71
2023/05/25 02:35:09;;;;;;;25.17;7.65;;;18.40;72.80;;;;;;7376829;19;20019;-71
2023/05/25 02:37:37;;;;;;;20.98;7.60;;;18.30;72.80;;;;;;7377144;19;20042;-73
2023/05/25 02:40:08;;;;;;;20.58;7.35;;;18.40;72.90;;;;;;7377490;19;20013;-72
2023/05/25 02:42:39;;;;;;;23.00;7.47;;;18.40;72.90;;;;;;7376287;19;20010;-72
2023/05/25 02:45:10;;;;;;;22.98;6.65;;;18.30;73.00;;;;;;7385034;19;20085;-72
2023/05/25 02:47:39;;;;;;;;;;;18.30;73.00;;;;;;7407025;19;20038;-72
2023/05/25 02:50:09;;;;;;;20.42;7.18;;;18.40;73.10;;;;;;7385605;19;19926;-73
2023/05/25 02:52:38;;;;;;;22.15;7.10;;;18.30;72.90;;;;;;7384541;19;20034;-72
2023/05/25 02:55:08;;;;;;;25.85;8.20;;;18.30;72.90;;;;;;7383097;19;20007;-73
2023/05/25 02:57:40;;;;;;;19.95;7.25;;;18.20;72.90;;;;;;7382450;19;20013;-72
2023/05/25 03:00:10;;;;;;;20.30;7.28;;;18.20;73.00;;;;;;7384559;19;20009;-73
2023/05/25 03:02:39;;;;;;;24.08;7.70;;;18.20;73.00;;;;;;7405652;19;20007;-72
2023/05/25 03:05:08;;;;;;;29.58;7.43;;;18.20;73.00;;;;;;7383350;19;20700;-72
2023/05/25 03:07:37;;;;;;;25.05;7.35;;;18.20;72.90;;;;;;7383775;19;20006;-72
2023/05/25 03:10:07;;;;;;;20.67;7.50;;;18.30;72.70;;;;;;7382967;19;20358;-73
2023/05/25 03:12:35;;;;;;;23.85;7.10;;;18.20;72.50;;;;;;7381996;19;20007;-72
2023/05/25 03:15:08;;;;;;;29.85;7.15;;;18.30;72.60;;;;;;7383718;19;20266;-72
2023/05/25 03:17:36;;;;;;;25.30;8.02;;;18.20;72.70;;;;;;7405057;19;20287;-72
2023/05/25 03:20:05;;;;;;;19.88;6.63;;;18.20;72.90;;;;;;7383027;19;20015;-72
2023/05/25 03:22:34;;;;;;;18.98;6.68;;;18.20;72.70;;;;;;7383182;19;20018;-72
2023/05/25 03:25:03;;;;;;;24.52;7.38;;;18.20;72.70;;;;;;7383572;19;20026;-72
2023/05/25 03:27:31;;;;;;;23.83;6.63;;;18.20;72.70;;;;;;7383436;19;20025;-74
2023/05/25 03:30:00;;;;;;;16.92;6.95;;;18.20;72.70;;;;;;7380853;19;20382;-73
2023/05/25 03:32:31;;;;;;;19.98;7.00;;;18.20;72.60;;;;;;7402663;19;20074;-73
2023/05/25 03:35:00;;;;;;;28.33;7.13;;;18.20;72.50;;;;;;7382528;19;20006;-72
2023/05/25 03:37:29;;;;;;;26.92;6.60;;;18.20;72.60;;;;;;7381794;19;20066;-72
2023/05/25 03:39:57;;;;;;;21.60;7.20;;;18.20;72.50;;;;;;7382724;19;20007;-72
2023/05/25 03:42:26;;;;;;;20.90;7.50;;;18.10;72.60;;;;;;7380730;19;20253;-72
2023/05/25 03:44:55;;;;;;;18.58;7.03;;;18.00;72.80;;;;;;7401853;19;20011;-72
2023/05/25 03:47:23;;;;;;;22.83;7.20;;;18.00;73.00;;;;;;7386233;19;20358;-71
2023/05/25 03:49:55;;;;;;;27.60;7.10;;;18.00;73.00;;;;;;7380367;19;20050;-71
2023/05/25 03:52:23;;;;;;;18.80;6.88;;;17.80;73.10;;;;;;7382767;19;20002;-72
2023/05/25 03:54:52;;;;;;;25.52;7.68;;;17.80;73.20;;;;;;7380660;19;20018;-72
2023/05/25 03:57:21;;;;;;;17.15;7.00;;;17.90;73.20;;;;;;7382737;19;20006;-72
2023/05/25 03:59:49;;;;;;;24.65;7.47;;;17.80;73.30;;;;;;7401944;19;20010;-72
2023/05/25 04:02:18;;;;;;;18.00;6.72;;;17.80;74.00;;;;;;7381807;19;20405;-71
2023/05/25 04:04:50;;;;;;;19.33;7.35;;;17.80;73.30;;;;;;7381398;19;20007;-72
2023/05/25 04:07:21;;;;;;;20.30;7.93;;;17.80;73.60;;;;;;7381923;19;20026;-72
2023/05/25 04:09:50;;;;;;;17.65;6.97;;;17.70;73.70;;;;;;7381710;19;20003;-72
2023/05/25 04:12:19;;;;;;;19.90;7.57;;;17.70;73.80;;;;;;7380194;19;20127;-72
2023/05/25 04:14:47;;;;;;;24.58;8.15;;;17.70;73.90;;;;;;7403369;19;20015;-72
2023/05/25 04:17:17;;;;;;;21.95;7.55;;;17.70;74.00;;;;;;7381072;19;20062;-72
2023/05/25 04:19:46;;;;;;;16.30;7.22;;;17.70;74.10;;;;;;7381705;19;20030;-72
2023/05/25 04:22:15;;;;;;;18.67;6.82;;;17.60;74.20;;;;;;7381862;19;20039;-72
2023/05/25 04:24:46;;;;;;;19.83;7.10;;;17.70;74.30;;;;;;7382510;19;20006;-72
2023/05/25 04:27:15;;;;;;;19.55;8.10;;;17.70;74.40;;;;;;7385343;19;20031;-72
2023/05/25 04:29:44;;;;;;;28.60;8.00;;;17.50;74.30;;;;;;7416638;19;20018;-71
2023/05/25 04:32:13;;;;;;;23.05;7.30;;;17.50;74.60;;;;;;7380169;19;20253;-72
2023/05/25 04:34:43;;;;;;;26.35;7.25;;;17.50;74.60;;;;;;7380990;19;20011;-72
2023/05/25 04:37:12;;;;;;;27.75;8.15;;;17.50;74.70;;;;;;7381135;19;20242;-72
2023/05/25 04:39:40;;;;;;;22.52;7.90;;;17.40;74.60;;;;;;7381047;19;20007;-72
2023/05/25 04:42:12;;;;;;;17.70;7.30;;;17.40;74.70;;;;;;7381220;19;20418;-72
2023/05/25 04:44:41;;;;;;;23.65;7.75;;;17.50;74.90;;;;;;7402394;19;20406;-72
2023/05/25 04:47:09;;;;;;;21.90;7.40;;;17.50;74.70;;;;;;7380190;19;20010;-72
2023/05/25 04:49:38;;;;;;;22.05;7.75;;;17.60;74.70;;;;;;7379545;19;20002;-72
2023/05/25 04:52:08;;;;;;;20.23;7.53;;;17.60;74.70;;;;;;7380321;19;20011;-72
2023/05/25 04:54:36;;;;;;;25.77;7.25;;;17.50;74.70;;;;;;7379317;19;20003;-72
2023/05/25 04:57:05;;;;;;;21.90;7.32;;;17.50;74.70;;;;;;7380090;19;20014;-72
2023/05/25 04:59:37;;;;;;;23.33;7.70;;;17.60;74.70;;;;;;7399870;19;20010;-72
2023/05/25 05:02:07;;;;;;;21.48;7.80;;;17.60;74.50;;;;;;7379628;19;20437;-72
2023/05/25 05:04:36;;;;;;;19.98;7.80;;;17.60;74.50;;;;;;7380052;19;20017;-72
2023/05/25 05:07:06;;;;;;;23.25;7.55;;;17.60;74.10;;;;;;7380065;19;20017;-72
2023/05/25 05:09:35;;;;;;;23.33;8.35;;;17.60;74.20;;;;;;7379956;19;20009;-72
2023/05/25 05:12:05;;;;;;;24.75;7.65;;;17.60;74.10;;;;;;7380012;19;20010;-72
2023/05/25 05:14:33;;;;;;;26.88;8.27;;;17.70;74.20;;;;;;7401123;19;20010;-71
2023/05/25 05:17:05;;;;;;;26.08;7.90;;;17.50;73.80;;;;;;7379225;19;20007;-72
2023/05/25 05:19:34;;;;;;;;;;;17.60;74.00;;;;;;7379519;19;20007;-71
2023/05/25 05:22:02;;;;;;;26.23;7.93;;;17.70;74.00;;;;;;7378898;19;19912;-72
2023/05/25 05:24:31;;;;;;;27.90;7.65;;;17.70;74.00;;;;;;7379857;19;20405;-71
2023/05/25 05:27:00;;;;;;;22.88;7.95;;;17.70;73.90;;;;;;7377790;19;20009;-72
2023/05/25 05:29:29;;;;;;;26.15;8.25;;;17.70;73.80;;;;;;7401703;19;20011;-72
2023/05/25 05:31:58;;;;;;;22.75;7.57;;;17.70;73.60;;;;;;7382121;19;20014;-72
2023/05/25 05:34:29;;;;;;;21.73;7.20;;;17.80;73.70;;;;;;7382362;19;20010;-72
2023/05/25 05:36:58;;;;;;;21.73;7.43;;;17.80;73.70;;;;;;7379587;19;20376;-72
2023/05/25 05:39:27;;;;;;;28.35;7.82;;;17.80;73.30;;;;;;7378910;19;20006;-72
2023/05/25 05:41:56;;;;;;;37.10;8.07;;;17.90;73.30;;;;;;7401524;19;20019;-72
2023/05/25 05:44:25;;;;;;;22.10;8.43;;;17.80;73.30;;;;;;7378429;19;20383;-72
2023/05/25 05:46:58;;;;;;;27.45;8.82;;;17.90;73.00;;;;;;7378232;19;20030;-72
2023/05/25 05:49:30;;;;;;;20.52;7.78;;;17.90;73.00;;;;;;7378288;19;20373;-72
2023/05/25 05:51:59;;;;;;;22.45;8.05;;;17.80;72.60;;;;;;7378704;19;20024;-72
2023/05/25 05:54:28;;;;;;;23.60;7.45;;;17.80;72.70;;;;;;7378657;19;20373;-72
2023/05/25 05:56:56;;;;;;;17.90;7.10;;;17.70;72.90;;;;;;7398386;19;20017;-71
2023/05/25 05:59:25;;;;;;;24.15;8.18;;;17.70;72.90;;;;;;7377890;19;20011;-71
2023/05/25 06:01:54;;;;;;;19.58;6.63;;;17.70;73.30;;;;;;7377757;19;20003;-71
2023/05/25 06:04:24;;;;;;;23.08;7.05;;;17.70;73.20;;;;;;7378101;19;20313;-73
2023/05/25 06:06:56;;;;;;;24.83;7.88;;;17.70;73.00;;;;;;7378597;19;20024;-71
2023/05/25 06:09:25;;;;;;;25.38;7.32;;;17.80;72.80;;;;;;7376789;19;20024;-71
2023/05/25 06:11:54;;;;;;;19.50;7.32;;;17.90;72.90;;;;;;7399686;19;20629;-71
2023/05/25 06:14:22;;;;;;;17.70;7.38;;;17.90;72.70;;;;;;7377818;19;20010;-71
2023/05/25 06:16:51;;;;;;;22.60;6.85;;;18.00;72.70;;;;;;7377584;19;20074;-71
2023/05/25 06:19:20;;;;;;;22.85;7.35;;;18.00;72.70;;;;;;7383506;19;20003;-71
2023/05/25 06:21:48;;;;;;;31.35;7.82;;;18.10;72.60;;;;;;7385683;19;19999;-71
2023/05/25 06:24:20;;;;;;;19.38;6.90;;;18.10;72.40;;;;;;7383118;19;20410;-71
2023/05/25 06:26:48;;;;;;;23.40;6.88;;;18.20;72.60;;;;;;7406945;19;20381;-71
2023/05/25 06:29:18;;;;;;;24.58;8.18;;;18.20;72.20;;;;;;7383862;19;20010;-71
2023/05/25 06:31:47;;;;;;;17.90;7.07;;;18.30;72.00;;;;;;7383741;19;20067;-71
2023/05/25 06:34:16;;;;;;;29.38;7.20;;;18.30;72.20;;;;;;7385362;19;20011;-71
2023/05/25 06:36:45;;;;;;;22.25;6.72;;;18.40;72.00;;;;;;7385651;19;20019;-72
2023/05/25 06:39:14;;;;;;;19.60;6.53;;;18.40;72.30;;;;;;7385084;19;20006;-71
2023/05/25 06:41:45;;;;;;;31.60;6.28;;;18.30;70.70;;;;;;7406509;19;20010;-70
2023/05/25 06:44:14;;;;;;;20.08;6.45;;;18.40;70.50;;;;;;7384045;19;20350;-71
2023/05/25 06:46:42;;;;;;;25.58;6.55;;;18.40;70.50;;;;;;7384540;19;20082;-71
2023/05/25 06:49:11;;;;;;;23.52;6.35;;;18.40;70.60;;;;;;7384476;19;20054;-71
2023/05/25 06:51:40;;;;;;;27.77;6.53;;;18.40;70.30;;;;;;7382856;19;20437;-71
2023/05/25 06:54:10;;;;;;;19.98;6.05;;;18.40;70.10;;;;;;7381893;19;20066;-71
2023/05/25 06:56:39;;;;;;;14.13;5.53;;;18.40;69.90;;;;;;7403183;19;20010;-71
2023/05/25 06:59:10;;;;;;;16.98;6.13;;;18.40;70.10;;;;;;7383024;19;20122;-72
2023/05/25 07:01:39;;;;;;;16.95;5.47;;;18.50;70.30;;;;;;7383604;19;20291;-71
2023/05/25 07:04:08;;;;;;;16.10;5.65;;;18.60;70.20;;;;;;7383944;19;20013;-71
2023/05/25 07:06:37;;;;;;;15.85;5.25;;;18.50;69.30;;;;;;7384482;19;20023;-73
2023/05/25 07:09:06;;;;;;;15.82;5.13;;;18.40;70.20;;;;;;7384270;19;20089;-72
2023/05/25 07:11:34;;;;;;;17.85;5.68;;;18.50;69.90;;;;;;7402610;19;20011;-71
2023/05/25 07:14:03;;;;;;;24.42;5.65;;;18.50;70.00;;;;;;7382494;19;20295;-71
2023/05/25 07:16:34;;;;;;;17.50;5.43;;;18.50;70.00;;;;;;7383008;19;20003;-71
2023/05/25 07:19:03;;;;;;;26.60;6.38;;;18.50;69.30;;;;;;7383483;19;20429;-70
2023/05/25 07:21:35;;;;;;;19.05;5.35;;;18.60;69.40;;;;;;7383685;19;20091;-71
2023/05/25 07:24:04;;;;;;;19.55;6.07;;;18.70;69.10;;;;;;7381351;19;20038;-72
2023/05/25 07:26:33;;;;;;;15.45;5.40;;;18.80;68.70;;;;;;7404700;19;20014;-71
2023/05/25 07:29:02;;;;;;;19.02;5.38;;;18.60;68.20;;;;;;7381917;19;20010;-72
2023/05/25 07:31:33;;;;;;;13.40;5.28;;;18.70;67.90;;;;;;7380359;19;20058;-71
2023/05/25 07:34:02;;;;;;;19.70;6.10;;;18.80;67.60;;;;;;7383706;19;20011;-71
2023/05/25 07:36:31;;;;;;;28.90;5.90;;;18.80;67.80;;;;;;7381489;19;20378;-71
2023/05/25 07:39:00;;;;;;;14.20;4.88;;;18.90;67.70;;;;;;7382676;19;20015;-71
2023/05/25 07:41:29;;;;;;;19.40;5.57;;;18.90;67.70;;;;;;7403907;19;20386;-71
2023/05/25 07:43:57;;;;;;;20.23;5.32;;;18.80;66.80;;;;;;7382318;19;20003;-71
2023/05/25 07:46:27;;;;;;;25.35;5.07;;;18.90;67.10;;;;;;7382683;19;20047;-71
2023/05/25 07:48:58;;;;;;;19.08;4.22;;;18.90;67.10;;;;;;7382773;19;20006;-71
2023/05/25 07:51:27;;;;;;;19.17;4.53;;;18.90;65.90;;;;;;7380408;19;20543;-72
2023/05/25 07:53:57;;;;;;;18.77;4.15;;;18.90;65.50;;;;;;7401851;19;20003;-72
2023/05/25 07:56:27;;;;;;;12.98;4.50;;;19.00;65.50;;;;;;7382079;19;20006;-72
2023/05/25 07:58:56;;;;;;;16.08;4.97;;;19.10;65.30;;;;;;7381884;19;20003;-72
2023/05/25 08:01:25;;;;;;;13.57;4.57;;;19.10;64.90;;;;;;7382223;19;19999;-72
2023/05/25 08:03:54;;;;;;;13.40;4.38;;;19.00;65.10;;;;;;7381423;19;20016;-72
2023/05/25 08:06:25;;;;;;;14.82;4.13;;;19.10;65.50;;;;;;7382240;19;20030;-72
2023/05/25 08:08:54;;;;;;;;;;;19.10;64.70;;;;;;7404493;19;20006;-72
2023/05/25 08:11:26;;;;;;;13.88;4.40;;;19.10;64.90;;;;;;7379544;19;19954;-72
2023/05/25 08:13:55;;;;;;;10.63;4.28;;;19.00;64.60;;;;;;7381237;19;20688;-72
2023/05/25 08:16:23;;;;;;;14.50;5.05;;;19.00;65.40;;;;;;7381720;19;20015;-72
2023/05/25 08:18:52;;;;;;;13.25;4.22;;;19.20;64.70;;;;;;7381810;19;20060;-72
2023/05/25 08:21:21;;;;;;;16.63;4.72;;;19.20;63.80;;;;;;7381746;19;20015;-72
2023/05/25 08:23:53;;;;;;;23.52;5.03;;;19.10;64.20;;;;;;7403445;19;20077;-73
2023/05/25 08:26:21;;;;;;;14.93;4.60;;;19.10;65.00;;;;;;7380609;19;20250;-72
2023/05/25 08:28:50;;;;;;;15.60;4.38;;;19.30;65.30;;;;;;7380772;19;20226;-72
2023/05/25 08:31:19;;;;;;;18.10;4.53;;;19.30;65.00;;;;;;7379501;19;20022;-72
2023/05/25 08:33:47;;;;;;;12.90;4.22;;;19.30;64.60;;;;;;7381295;19;20006;-73
2023/05/25 08:36:16;;;;;;;15.60;3.78;;;19.20;63.20;;;;;;7384698;19;20014;-72
2023/05/25 08:38:45;;;;;;;17.55;4.70;;;19.20;63.70;;;;;;7402593;19;20017;-73
2023/05/25 08:41:16;;;;;;;15.85;3.75;;;19.30;64.70;;;;;;7379413;19;20007;-72
2023/05/25 08:43:45;;;;;;;;;;;19.30;65.00;;;;;;7380696;19;20019;-72
2023/05/25 08:46:14;;;;;;;10.23;3.80;;;19.20;64.30;;;;;;7380486;19;19906;-72
2023/05/25 08:48:45;;;;;;;19.48;3.63;;;19.20;63.90;;;;;;7379393;19;20007;-72
2023/05/25 08:51:16;;;;;;;10.73;3.60;;;19.30;64.10;;;;;;7379622;19;20086;-72
2023/05/25 08:53:46;;;;;;;13.68;3.80;;;19.30;64.00;;;;;;7400313;19;20011;-72
2023/05/25 08:56:22;;;;;;;16.65;3.53;;;19.40;64.10;;;;;;7380041;19;20011;-72
2023/05/25 08:58:55;;;;;;;12.52;3.92;;;19.50;63.60;;;;;;7380169;19;20255;-72
2023/05/25 09:01:28;;;;;;;16.30;4.75;;;19.60;63.80;;;;;;7380660;19;20361;-72
2023/05/25 09:03:58;;;;;;;12.13;3.92;;;19.40;63.80;;;;;;7380602;19;20010;-72
2023/05/25 09:06:28;;;;;;;14.52;3.65;;;19.50;63.70;;;;;;7380650;19;20014;-72
2023/05/25 09:08:57;;;;;;;14.13;3.47;;;19.20;63.00;;;;;;7401769;19;20003;-72
2023/05/25 09:11:30;;;;;;;15.48;3.63;;;19.30;63.90;;;;;;7400545;19;20013;-72
2023/05/25 09:14:00;;;;;;;15.60;3.90;;;19.30;63.40;;;;;;7380793;19;20273;-72
2023/05/25 09:16:29;;;;;;;14.00;3.85;;;19.40;63.20;;;;;;7380226;19;20007;-72
2023/05/25 09:18:58;;;;;;;16.58;4.25;;;19.40;62.20;;;;;;7380680;19;20038;-71
2023/05/25 09:21:27;;;;;;;15.65;3.38;;;19.50;62.60;;;;;;7379518;19;20051;-71
2023/05/25 09:23:56;;;;;;;14.65;4.07;;;19.20;61.20;;;;;;7402690;19;20031;-72
2023/05/25 09:26:28;;;;;;;12.23;3.30;;;19.40;62.50;;;;;;7382022;19;20058;-71
2023/05/25 09:28:57;;;;;;;17.42;3.80;;;19.40;62.40;;;;;;7382928;19;20061;-72
2023/05/25 09:31:26;;;;;;;14.73;3.28;;;19.50;62.20;;;;;;7383751;19;20014;-72
2023/05/25 09:33:58;;;;;;;17.70;4.35;;;19.60;61.70;;;;;;7379081;19;20024;-72
2023/05/25 09:36:27;;;;;;;13.48;3.17;;;19.70;60.80;;;;;;7379597;19;20030;-71
2023/05/25 09:38:56;;;;;;;9.32;3.53;;;19.70;62.00;;;;;;7400830;19;20012;-72
2023/05/25 09:41:28;;;;;;;14.80;3.63;;;19.80;60.50;;;;;;7378303;19;20417;-72
2023/05/25 09:43:57;;;;;;;10.63;3.50;;;19.80;60.50;;;;;;7378460;19;20006;-72
2023/05/25 09:46:27;;;;;;;15.88;3.75;;;19.80;59.70;;;;;;7378511;19;20270;-72
2023/05/25 09:48:56;;;;;;;8.05;3.47;;;19.80;59.60;;;;;;7377889;19;20043;-73
2023/05/25 09:51:24;;;;;;;16.42;3.70;;;19.90;58.60;;;;;;7376911;19;20229;-73
2023/05/25 09:53:53;;;;;;;18.13;3.55;;;19.80;58.40;;;;;;7398874;19;20010;-72
2023/05/25 09:56:29;;;;;;;12.32;3.15;;;19.90;58.30;;;;;;7378919;19;20007;-77
2023/05/25 09:59:16;;;;;;;14.57;3.47;;;20.00;58.60;;;;;;7410524;19;20007;-81
2023/05/25 10:01:45;;;;;;;15.27;3.28;;;20.00;58.70;;;;;;7378306;19;20011;-76
2023/05/25 10:04:17;;;;;;;14.70;2.95;;;20.10;58.20;;;;;;7378138;19;20307;-76
2023/05/25 10:06:48;;;;;;;14.27;3.33;;;20.20;58.40;;;;;;7377577;19;20023;-76
2023/05/25 10:09:21;;;;;;;18.08;2.95;;;20.20;59.00;;;;;;7378954;19;20023;-76
2023/05/25 10:11:54;;;;;;;12.10;3.15;;;20.20;58.00;;;;;;7400160;19;20011;-74
2023/05/25 10:14:27;;;;;;;14.45;2.92;;;20.30;58.00;;;;;;7383581;19;20027;-74
2023/05/25 10:16:57;;;;;;;13.93;3.15;;;20.40;57.60;;;;;;7377595;19;20003;-73
2023/05/25 10:19:33;;;;;;;7.40;3.10;;;20.50;58.30;;;;;;7378053;19;20024;-74
2023/05/25 10:22:06;;;;;;;15.85;3.65;;;20.50;58.50;;;;;;7378424;19;20006;-75
2023/05/25 10:24:44;;;;;;;10.45;3.50;;;20.60;58.80;;;;;;7378261;19;19999;-75
2023/05/25 10:27:20;;;;;;;13.50;3.22;;;20.60;57.70;;;;;;7378515;19;20014;-75
2023/05/25 10:29:50;;;;;;;7.78;3.17;;;20.60;58.50;;;;;;7399658;19;20058;-75
2023/05/25 10:32:20;;;;;;;14.80;3.47;;;20.50;57.50;;;;;;7375911;19;20094;-75
2023/05/25 10:34:50;;;;;;;15.93;3.15;;;20.50;56.90;;;;;;7378230;19;20030;-75
2023/05/25 10:37:20;;;;;;;6.95;2.95;;;20.60;57.50;;;;;;7378349;19;20411;-75
2023/05/25 10:39:49;;;;;;;8.73;2.85;;;20.50;57.10;;;;;;7377922;19;20007;-76
2023/05/25 10:42:21;;;;;;;10.02;2.70;;;20.80;58.60;;;;;;7379209;19;20008;-74
2023/05/25 10:44:50;;;;;;;10.07;3.05;;;20.80;57.60;;;;;;7400766;19;20015;-73
2023/05/25 10:47:19;;;;;;;8.75;3.03;;;20.90;57.50;;;;;;7380859;19;20071;-73
2023/05/25 10:49:56;;;;;;;12.98;2.97;;;21.00;57.30;;;;;;7376983;19;20003;-73
2023/05/25 10:52:30;;;;;;;20.08;3.53;;;21.10;56.10;;;;;;7376844;19;20009;-73
2023/05/25 10:55:00;;;;;;;8.82;2.78;;;21.20;56.90;;;;;;7377384;19;20014;-72
2023/05/25 10:57:31;;;;;;;11.40;3.25;;;21.30;57.20;;;;;;7377939;19;20006;-73
2023/05/25 11:00:05;;;;;;;;;;;21.30;58.30;;;;;;7379168;19;20296;-73
2023/05/25 11:02:52;;;;;;;10.48;3.35;;;21.40;58.20;;;;;;7398139;19;19930;-72
2023/05/25 11:05:35;;;;;;;12.55;3.60;;;21.30;57.50;;;;;;7382181;19;20010;-72
2023/05/25 11:08:05;;;;;;;8.10;3.47;;;21.10;57.40;;;;;;7383430;19;20007;-72
2023/05/25 11:10:54;;;;;;;17.38;3.72;;;21.20;57.80;;;;;;7382769;19;20007;-72
2023/05/25 11:13:37;;;;;;;10.80;3.50;;;21.20;58.00;;;;;;7383810;19;20057;-71
2023/05/25 11:16:25;;;;;;;10.75;3.58;;;21.20;58.00;;;;;;7385058;19;20406;-72
2023/05/25 11:18:56;;;;;;;7.82;3.17;;;21.50;57.90;;;;;;7383391;19;20003;-72
2023/05/25 11:21:42;;;;;;;;;;;21.60;57.70;;;;;;7382975;19;20038;-71
2023/05/25 11:24:16;;;;;;;6.38;3.35;;;21.60;57.40;;;;;;7383371;19;19925;-72
2023/05/25 11:26:59;;;;;;;27.80;4.50;;;21.60;57.30;;;;;;7403987;19;20070;-72
2023/05/25 11:29:35;;;;;;;13.45;2.60;;;21.60;57.70;;;;;;7383140;19;20243;-71
2023/05/25 11:32:03;;;;;;;7.88;2.95;;;21.40;56.40;;;;;;7381292;19;20246;-72
2023/05/25 11:34:33;;;;;;;12.63;3.13;;;21.30;57.50;;;;;;7382795;19;19998;-71
2023/05/25 11:37:03;;;;;;;9.98;3.42;;;21.40;57.70;;;;;;7382971;19;20010;-71
2023/05/25 11:39:32;;;;;;;10.73;3.90;;;21.30;57.00;;;;;;7382947;19;20017;-71
2023/05/25 11:42:06;;;;;;;8.40;2.97;;;21.40;57.30;;;;;;7382579;19;20405;-71
2023/05/25 11:44:38;;;;;;;14.82;4.05;;;21.50;57.30;;;;;;7401897;19;20007;-71
2023/05/25 11:47:13;;;;;;;9.20;2.88;;;21.60;57.40;;;;;;7382090;19;20024;-71
2023/05/25 11:49:44;;;;;;;15.32;3.45;;;21.70;56.40;;;;;;7383037;19;20030;-71
2023/05/25 11:52:15;;;;;;;7.75;2.72;;;21.80;56.50;;;;;;7381242;19;20002;-72
2023/05/25 11:54:45;;;;;;;13.43;3.30;;;21.90;56.70;;;;;;7382613;19;20003;-71
2023/05/25 11:57:18;;;;;;;14.02;3.20;;;21.80;56.30;;;;;;7380181;19;20015;-71
2023/05/25 11:59:53;;;;;;;10.77;3.92;;;21.80;57.40;;;;;;7407652;19;20015;-71
2023/05/25 12:02:23;;;;;;;6.97;3.10;;;22.00;56.90;;;;;;7386488;19;20027;-74
2023/05/25 12:04:56;;;;;;;7.03;2.85;;;22.00;56.00;;;;;;7392455;19;20007;-75
2023/05/25 12:07:27;;;;;;;7.15;2.95;;;22.10;56.60;;;;;;7382544;19;20302;-74
2023/05/25 12:10:06;;;;;;;9.43;3.42;;;22.20;56.70;;;;;;7382477;19;20377;-74
2023/05/25 12:12:44;;;;;;;9.82;3.25;;;22.20;56.50;;;;;;7380960;19;20007;-74
2023/05/25 12:15:18;;;;;;;10.73;3.30;;;22.30;56.10;;;;;;7383442;19;20006;-74
2023/05/25 12:17:47;;;;;;;7.05;2.90;;;22.30;55.60;;;;;;7400208;19;20375;-74
2023/05/25 12:20:17;;;;;;;22.73;3.70;;;22.40;55.90;;;;;;7381399;19;20074;-74
2023/05/25 12:22:47;;;;;;;8.27;2.90;;;22.30;55.00;;;;;;7382551;19;20114;-74
2023/05/25 12:25:20;;;;;;;10.57;2.85;;;22.40;56.10;;;;;;7381796;19;20027;-76
2023/05/25 12:27:48;;;;;;;117.57;5.78;;;22.40;56.20;;;;;;7380869;19;20003;-76
2023/05/25 12:30:20;;;;;;;35.30;3.47;;;22.40;56.50;;;;;;7381940;19;20031;-75
2023/05/25 12:32:55;;;;;;;;;;;22.50;57.00;;;;;;7401579;19;20010;-74
2023/05/25 12:35:26;;;;;;;7.63;2.70;;;22.50;57.40;;;;;;7380699;19;19910;-76
2023/05/25 12:38:13;;;;;;;11.95;3.13;;;22.60;57.00;;;;;;7383180;19;20112;-74
2023/05/25 12:40:42;;;;;;;5.55;2.67;;;22.70;55.80;;;;;;7381700;19;20019;-75
2023/05/25 12:43:15;;;;;;;7.82;3.15;;;22.80;56.80;;;;;;7380471;19;20003;-74
2023/05/25 12:45:52;;;;;;;11.55;3.42;;;22.80;56.70;;;;;;7379581;19;20070;-74
2023/05/25 12:48:27;;;;;;;;;;;22.90;57.00;;;;;;7379682;19;20010;-74
2023/05/25 12:50:59;;;;;;;5.82;2.65;;;23.00;56.40;;;;;;7404822;19;20222;-73
2023/05/25 12:53:29;;;;;;;10.02;3.45;;;23.00;56.40;;;;;;7378395;19;20088;-73
2023/05/25 12:56:05;;;;;;;9.55;3.00;;;23.00;55.20;;;;;;7379888;19;20003;-73
2023/05/25 12:58:34;;;;;;;10.88;3.13;;;23.10;55.20;;;;;;7379834;19;20015;-72